createdAt,value
2022-12-11T00:01:12.159Z,7.75
2022-12-11T00:03:41.824Z,10.38
2022-12-11T00:06:12.351Z,9.15
2022-12-11T00:08:40.579Z,8.15
2022-12-11T00:11:11.470Z,9.65
2022-12-11T00:13:39.666Z,6.35
2022-12-11T00:16:08.571Z,5.43
2022-12-11T00:18:37.216Z,10.85
2022-12-11T00:21:11.829Z,6.10
2022-12-11T00:23:40.076Z,8.63
2022-12-11T00:26:10.436Z,7.80
2022-12-11T00:28:38.798Z,7.10
2022-12-11T00:31:08.071Z,10.02
2022-12-11T00:33:36.216Z,9.65
2022-12-11T00:36:05.082Z,7.28
2022-12-11T00:38:37.611Z,8.20
2022-12-11T00:41:06.159Z,11.15
2022-12-11T00:43:34.292Z,6.75
2022-12-11T00:46:05.209Z,9.63
2022-12-11T00:48:33.512Z,7.40
2022-12-11T00:51:01.808Z,6.75
2022-12-11T00:53:30.155Z,8.48
2022-12-11T00:55:59.659Z,5.85
2022-12-11T00:58:28.682Z,8.90
2022-12-11T01:00:56.817Z,4.90
2022-12-11T01:03:24.967Z,9.98
2022-12-11T01:05:54.215Z,9.45
2022-12-11T01:08:22.778Z,7.30
2022-12-11T01:10:51.064Z,11.30
2022-12-11T01:13:23.017Z,10.77
2022-12-11T01:15:53.681Z,7.80
2022-12-11T01:18:21.780Z,6.15
2022-12-11T01:20:49.955Z,4.20
2022-12-11T01:23:18.132Z,10.20
2022-12-11T01:25:49.252Z,7.90
2022-12-11T01:28:18.440Z,5.25
2022-12-11T01:30:48.127Z,7.90
2022-12-11T01:33:18.520Z,9.68
2022-12-11T01:35:46.584Z,5.53
2022-12-11T01:38:14.691Z,6.43
2022-12-11T01:40:53.510Z,7.35
2022-12-11T01:43:21.670Z,6.57
2022-12-11T01:45:51.340Z,6.47
2022-12-11T01:48:22.858Z,7.45
2022-12-11T01:50:53.303Z,6.05
2022-12-11T01:53:25.747Z,7.35
2022-12-11T01:55:56.230Z,7.82
2022-12-11T01:58:28.319Z,7.00
2022-12-11T02:00:58.370Z,5.13
2022-12-11T02:03:26.605Z,9.85
2022-12-11T02:05:54.797Z,4.38
2022-12-11T02:08:23.051Z,7.25
2022-12-11T02:11:02.995Z,9.57
2022-12-11T02:13:38.761Z,3.70
2022-12-11T02:16:19.188Z,6.53
2022-12-11T02:18:52.860Z,4.57
2022-12-11T02:21:27.896Z,6.10
2022-12-11T02:24:14.873Z,6.47
2022-12-11T02:27:04.403Z,7.88
2022-12-11T02:29:38.376Z,10.13
2022-12-11T02:32:14.751Z,6.47
2022-12-11T02:34:46.376Z,4.65
2022-12-11T02:37:20.226Z,4.55
2022-12-11T02:39:50.745Z,6.80
2022-12-11T02:42:23.999Z,9.02
2022-12-11T02:44:55.264Z,11.20
2022-12-11T02:47:29.112Z,5.78
2022-12-11T02:49:59.781Z,7.18
2022-12-11T02:52:30.793Z,7.20
2022-12-11T02:55:01.982Z,5.47
2022-12-11T02:57:36.444Z,10.90
2022-12-11T03:00:07.592Z,5.50
2022-12-11T03:02:35.723Z,7.80
2022-12-11T03:05:05.507Z,8.52
2022-12-11T03:07:37.386Z,7.68
2022-12-11T03:10:07.050Z,9.07
2022-12-11T03:12:38.852Z,7.32
2022-12-11T03:15:12.184Z,7.95
2022-12-11T03:17:48.986Z,4.13
2022-12-11T03:20:27.826Z,12.00
2022-12-11T03:23:03.854Z,6.50
2022-12-11T03:25:37.568Z,5.57
2022-12-11T03:28:12.350Z,8.15
2022-12-11T03:30:43.908Z,6.93
2022-12-11T03:33:15.923Z,7.05
2022-12-11T03:35:48.157Z,7.18
2022-12-11T03:38:22.188Z,9.48
2022-12-11T03:40:55.250Z,5.30
2022-12-11T03:43:23.764Z,6.40
2022-12-11T03:45:55.480Z,5.72
2022-12-11T03:48:25.974Z,5.90
2022-12-11T03:50:54.698Z,8.85
2022-12-11T03:53:24.325Z,7.22
2022-12-11T03:55:53.250Z,7.97
2022-12-11T03:58:23.910Z,5.90
2022-12-11T04:00:55.642Z,5.93
2022-12-11T04:03:23.696Z,7.28
2022-12-11T04:05:56.407Z,5.35
2022-12-11T04:08:25.157Z,12.88
2022-12-11T04:11:14.072Z,4.88
2022-12-11T04:13:42.736Z,5.90
2022-12-11T04:16:11.348Z,6.85
2022-12-11T04:19:08.328Z,5.32
2022-12-11T04:21:54.267Z,7.25
2022-12-11T04:24:22.962Z,8.07
2022-12-11T04:26:51.043Z,7.90
2022-12-11T04:29:19.204Z,6.53
2022-12-11T04:31:51.661Z,6.85
2022-12-11T04:34:19.790Z,7.15
2022-12-11T04:36:47.978Z,6.93
2022-12-11T04:39:16.087Z,10.05
2022-12-11T04:41:44.542Z,9.18
2022-12-11T04:44:12.644Z,8.02
2022-12-11T04:46:40.790Z,7.57
2022-12-11T04:49:10.459Z,7.55
2022-12-11T04:51:38.536Z,8.32
2022-12-11T04:54:06.720Z,9.70
2022-12-11T04:56:34.766Z,6.57
2022-12-11T04:59:03.019Z,6.53
2022-12-11T05:01:31.217Z,7.47
2022-12-11T05:04:00.997Z,7.82
2022-12-11T05:06:30.547Z,5.60
2022-12-11T05:08:58.648Z,5.97
2022-12-11T05:11:26.706Z,7.38
2022-12-11T05:13:54.872Z,7.55
2022-12-11T05:16:23.115Z,7.60
2022-12-11T05:18:51.243Z,6.55
2022-12-11T05:21:19.431Z,8.38
2022-12-11T05:23:48.858Z,9.07
2022-12-11T05:26:18.694Z,6.82
2022-12-11T05:28:47.516Z,7.65
2022-12-11T05:31:17.408Z,5.68
2022-12-11T05:33:46.986Z,9.90
2022-12-11T05:36:18.355Z,6.32
2022-12-11T05:38:48.357Z,11.48
2022-12-11T05:41:19.075Z,7.05
2022-12-11T05:43:47.261Z,8.18
2022-12-11T05:46:17.878Z,6.28
2022-12-11T05:48:47.687Z,6.95
2022-12-11T05:51:17.872Z,9.38
2022-12-11T05:53:48.892Z,7.80
2022-12-11T05:56:19.490Z,7.18
2022-12-11T05:58:48.727Z,5.35
2022-12-11T06:01:18.918Z,5.78
2022-12-11T06:03:47.462Z,7.20
2022-12-11T06:06:16.277Z,9.43
2022-12-11T06:08:44.568Z,9.07
2022-12-11T06:11:18.385Z,6.70
2022-12-11T06:13:49.188Z,6.00
2022-12-11T06:16:17.350Z,7.75
2022-12-11T06:18:46.489Z,4.60
2022-12-11T06:21:16.583Z,8.25
2022-12-11T06:23:49.464Z,8.90
2022-12-11T06:26:19.362Z,9.32
2022-12-11T06:28:48.079Z,8.70
2022-12-11T06:31:16.523Z,5.30
2022-12-11T06:33:45.504Z,6.63
2022-12-11T06:36:15.223Z,7.22
2022-12-11T06:38:43.852Z,6.40
2022-12-11T06:41:13.659Z,6.07
2022-12-11T06:43:44.031Z,6.78
2022-12-11T06:46:14.104Z,6.80
2022-12-11T06:48:43.263Z,5.70
2022-12-11T06:51:16.107Z,7.65
2022-12-11T06:53:44.866Z,6.07
2022-12-11T06:56:15.297Z,7.43
2022-12-11T06:58:45.039Z,7.10
2022-12-11T07:01:18.539Z,6.28
2022-12-11T07:03:47.378Z,7.38
2022-12-11T07:06:16.396Z,7.55
2022-12-11T07:08:45.582Z,6.93
2022-12-11T07:11:15.806Z,8.60
2022-12-11T07:13:45.514Z,6.22
2022-12-11T07:16:15.524Z,5.47
2022-12-11T07:18:49.022Z,6.43
2022-12-11T07:21:18.277Z,7.50
2022-12-11T07:23:46.773Z,9.82
2022-12-11T07:26:16.945Z,10.35
2022-12-11T07:28:47.394Z,11.45
2022-12-11T07:31:17.712Z,3.63
2022-12-11T07:33:46.997Z,5.25
2022-12-11T07:36:16.590Z,5.68
2022-12-11T07:38:44.810Z,6.90
2022-12-11T07:41:14.808Z,7.03
2022-12-11T07:43:43.729Z,6.72
2022-12-11T07:46:15.747Z,5.45
2022-12-11T07:48:45.655Z,4.95
2022-12-11T07:51:16.045Z,4.30
2022-12-11T07:53:45.586Z,6.80
2022-12-11T07:56:14.213Z,4.70
2022-12-11T07:58:42.354Z,4.70
2022-12-11T08:01:14.316Z,3.05
2022-12-11T08:03:43.707Z,4.45
2022-12-11T08:06:12.021Z,2.63
2022-12-11T08:08:41.589Z,5.47
2022-12-11T08:11:11.693Z,3.95
2022-12-11T08:13:40.031Z,4.05
2022-12-11T08:16:10.527Z,6.35
2022-12-11T08:18:41.918Z,6.25
2022-12-11T08:21:12.181Z,5.90
2022-12-11T08:23:40.496Z,6.78
2022-12-11T08:26:10.867Z,7.25
2022-12-11T08:28:39.095Z,8.90
2022-12-11T08:31:09.331Z,6.30
2022-12-11T08:33:39.934Z,7.47
2022-12-11T08:36:10.529Z,6.28
2022-12-11T08:38:38.983Z,3.90
2022-12-11T08:41:11.225Z,4.15
2022-12-11T08:43:39.902Z,6.07
2022-12-11T08:46:08.663Z,7.78
2022-12-11T08:48:37.485Z,4.80
2022-12-11T08:51:11.768Z,5.00
2022-12-11T08:53:39.956Z,5.70
2022-12-11T08:56:10.587Z,5.57
2022-12-11T08:58:39.550Z,3.65
2022-12-11T09:01:08.988Z,6.72
2022-12-11T09:03:37.449Z,7.07
2022-12-11T09:06:08.876Z,6.28
2022-12-11T09:08:37.319Z,5.78
2022-12-11T09:11:09.290Z,5.38
2022-12-11T09:13:37.817Z,7.20
2022-12-11T09:16:06.611Z,7.07
2022-12-11T09:18:34.752Z,6.18
2022-12-11T09:21:03.594Z,3.80
2022-12-11T09:23:33.095Z,6.47
2022-12-11T09:26:08.101Z,8.95
2022-12-11T09:28:37.424Z,5.95
2022-12-11T09:31:10.907Z,6.60
2022-12-11T09:33:42.474Z,5.50
2022-12-11T09:36:14.197Z,6.75
2022-12-11T09:38:44.875Z,3.10
2022-12-11T09:41:38.749Z,6.63
2022-12-11T09:44:33.578Z,5.72
2022-12-11T09:47:02.374Z,5.20
2022-12-11T09:49:38.702Z,4.43
2022-12-11T09:52:14.817Z,5.50
2022-12-11T09:54:50.827Z,4.70
2022-12-11T09:57:32.759Z,5.95
2022-12-11T10:00:12.937Z,5.15
2022-12-11T10:02:56.297Z,4.68
2022-12-11T10:05:33.794Z,4.60
2022-12-11T10:08:10.707Z,4.57
2022-12-11T10:10:44.472Z,6.15
2022-12-11T10:13:27.243Z,6.30
2022-12-11T10:16:05.149Z,6.68
2022-12-11T10:18:34.994Z,5.07
2022-12-11T10:21:04.600Z,5.78
2022-12-11T10:23:39.798Z,4.07
2022-12-11T10:26:14.255Z,5.40
2022-12-11T10:28:42.368Z,4.97
2022-12-11T10:31:18.249Z,5.20
2022-12-11T10:33:56.616Z,5.43
2022-12-11T10:36:30.184Z,4.80
2022-12-11T10:38:58.864Z,5.85
2022-12-11T10:41:39.182Z,5.68
2022-12-11T10:44:21.244Z,6.65
2022-12-11T10:47:06.071Z,4.95
2022-12-11T10:49:36.207Z,4.63
2022-12-11T10:52:14.974Z,7.88
2022-12-11T10:54:48.923Z,8.57
2022-12-11T10:57:29.745Z,7.78
2022-12-11T10:59:59.045Z,4.40
2022-12-11T11:02:32.031Z,3.65
2022-12-11T11:05:02.615Z,4.05
2022-12-11T11:07:33.257Z,6.15
2022-12-11T11:10:20.887Z,3.88
2022-12-11T11:13:02.460Z,5.35
2022-12-11T11:15:32.075Z,5.13
2022-12-11T11:18:11.468Z,5.13
2022-12-11T11:20:48.546Z,8.07
2022-12-11T11:23:17.595Z,6.18
2022-12-11T11:25:52.477Z,3.28
2022-12-11T11:28:25.544Z,4.28
2022-12-11T11:31:01.529Z,8.93
2022-12-11T11:33:31.056Z,5.75
2022-12-11T11:36:01.709Z,6.43
2022-12-11T11:38:34.754Z,4.97
2022-12-11T11:41:15.117Z,4.63
2022-12-11T11:43:49.913Z,4.80
2022-12-11T11:46:24.193Z,5.45
2022-12-11T11:48:58.337Z,3.78
2022-12-11T11:51:35.416Z,4.88
2022-12-11T11:54:13.154Z,6.10
2022-12-11T11:56:41.862Z,9.07
2022-12-11T11:59:15.569Z,6.05
2022-12-11T12:01:44.133Z,6.80
2022-12-11T12:04:12.963Z,4.90
2022-12-11T12:06:54.371Z,6.82
2022-12-11T12:09:38.496Z,5.70
2022-12-11T12:12:26.369Z,4.78
2022-12-11T12:15:19.727Z,6.85
2022-12-11T12:17:55.974Z,4.75
2022-12-11T12:20:36.903Z,6.65
2022-12-11T12:23:20.046Z,5.57
2022-12-11T12:25:53.994Z,5.70
2022-12-11T12:28:34.907Z,5.88
2022-12-11T12:31:15.114Z,7.50
2022-12-11T12:33:54.258Z,7.05
2022-12-11T12:36:33.961Z,6.75
2022-12-11T12:39:03.601Z,6.32
2022-12-11T12:41:44.109Z,4.07
2022-12-11T12:44:17.299Z,6.55
2022-12-11T12:46:54.863Z,6.60
2022-12-11T12:49:35.403Z,4.68
2022-12-11T12:52:06.348Z,5.45
2022-12-11T12:54:36.302Z,5.72
2022-12-11T12:57:06.381Z,6.00
2022-12-11T12:59:34.539Z,4.63
2022-12-11T13:02:06.522Z,8.88
2022-12-11T13:04:55.992Z,5.00
2022-12-11T13:07:29.938Z,4.45
2022-12-11T13:10:06.979Z,4.43
2022-12-11T13:12:43.291Z,4.30
2022-12-11T13:15:43.691Z,4.35
2022-12-11T13:18:34.040Z,5.97
2022-12-11T13:21:02.927Z,5.63
2022-12-11T13:23:33.218Z,5.30
2022-12-11T13:26:02.782Z,2.97
2022-12-11T13:28:34.353Z,4.00
2022-12-11T13:31:32.187Z,4.75
2022-12-11T13:34:16.527Z,7.32
2022-12-11T13:36:49.599Z,4.50
2022-12-11T13:39:20.254Z,4.38
2022-12-11T13:41:53.380Z,4.55
2022-12-11T13:44:25.809Z,4.40
2022-12-11T13:47:02.217Z,6.05
2022-12-11T13:49:39.995Z,6.70
2022-12-11T13:55:25.088Z,3.20
2022-12-11T13:57:53.299Z,5.32
2022-12-11T14:00:25.013Z,5.32
2022-12-11T14:02:54.750Z,3.60
2022-12-11T14:05:25.127Z,3.10
2022-12-11T14:07:56.126Z,3.97
2022-12-11T14:10:27.251Z,4.45
2022-12-11T14:13:04.666Z,4.85
2022-12-11T14:15:39.711Z,4.50
2022-12-11T14:21:05.581Z,4.88
2022-12-11T14:23:36.711Z,6.55
2022-12-11T14:26:40.245Z,4.05
2022-12-11T14:29:10.161Z,4.72
2022-12-11T14:31:42.002Z,6.32
2022-12-11T14:34:17.217Z,3.85
2022-12-11T14:36:49.194Z,3.47
2022-12-11T14:39:22.030Z,3.70
2022-12-11T14:41:58.530Z,4.75
2022-12-11T14:44:33.112Z,3.25
2022-12-11T14:47:05.354Z,2.85
2022-12-11T14:49:40.390Z,4.18
2022-12-11T14:52:17.092Z,3.58
2022-12-11T14:54:47.814Z,5.57
2022-12-11T14:57:21.095Z,2.63
2022-12-11T14:59:51.426Z,2.17
2022-12-11T15:02:29.739Z,4.22
2022-12-11T15:05:18.497Z,3.22
2022-12-11T15:07:59.551Z,4.60
2022-12-11T15:10:36.694Z,3.72
2022-12-11T15:13:06.965Z,4.45
2022-12-11T15:15:44.333Z,2.88
2022-12-11T15:18:22.748Z,2.47
2022-12-11T15:20:53.700Z,3.33
2022-12-11T15:23:23.555Z,3.03
2022-12-11T15:25:53.912Z,3.25
2022-12-11T15:28:29.252Z,2.50
2022-12-11T15:31:00.313Z,3.60
2022-12-11T15:33:34.118Z,3.47
2022-12-11T15:36:05.629Z,3.05
2022-12-11T15:38:37.650Z,5.43
2022-12-11T15:41:14.499Z,3.92
2022-12-11T15:43:43.423Z,2.22
2022-12-11T15:46:11.653Z,5.07
2022-12-11T15:48:40.025Z,4.03
2022-12-11T15:51:08.251Z,2.22
2022-12-11T15:53:37.751Z,4.22
2022-12-11T15:56:06.775Z,4.43
2022-12-11T15:58:35.639Z,2.90
2022-12-11T16:01:04.185Z,2.90
2022-12-11T16:03:34.811Z,3.65
2022-12-11T16:06:03.078Z,2.40
2022-12-11T16:08:31.291Z,2.47
2022-12-11T16:11:00.781Z,4.20
2022-12-11T16:13:28.902Z,2.55
2022-12-11T16:15:58.518Z,2.85
2022-12-11T16:18:28.220Z,3.25
2022-12-11T16:20:56.320Z,3.47
2022-12-11T16:23:24.964Z,6.45
2022-12-11T16:25:53.254Z,5.85
2022-12-11T16:28:22.838Z,5.20
2022-12-11T16:30:50.940Z,4.53
2022-12-11T16:33:19.245Z,4.13
2022-12-11T16:35:47.475Z,3.28
2022-12-11T16:38:15.635Z,3.35
2022-12-11T16:40:43.799Z,5.00
2022-12-11T16:43:12.022Z,4.18
2022-12-11T16:45:42.228Z,5.25
2022-12-11T16:48:11.056Z,3.50
2022-12-11T16:50:41.074Z,3.70
2022-12-11T16:53:09.692Z,2.92
2022-12-11T16:55:40.266Z,3.90
2022-12-11T16:58:09.595Z,4.47
2022-12-11T17:00:37.749Z,4.72
2022-12-11T17:03:07.952Z,3.22
2022-12-11T17:05:36.080Z,2.60
2022-12-11T17:08:04.239Z,3.03
2022-12-11T17:10:33.949Z,3.55
2022-12-11T17:13:02.039Z,4.85
2022-12-11T17:15:30.250Z,4.20
2022-12-11T17:17:58.616Z,3.05
2022-12-11T17:20:28.091Z,3.30
2022-12-11T17:22:56.187Z,5.20
2022-12-11T17:25:24.347Z,2.47
2022-12-11T17:27:52.621Z,3.35
2022-12-11T17:30:21.011Z,3.17
2022-12-11T17:32:49.333Z,3.63
2022-12-11T17:35:17.699Z,3.28
2022-12-11T17:37:47.350Z,2.55
2022-12-11T17:40:15.703Z,3.60
2022-12-11T17:42:44.991Z,2.95
2022-12-11T17:45:13.358Z,3.50
2022-12-11T17:47:41.755Z,3.40
2022-12-11T17:50:10.642Z,2.95
2022-12-11T17:52:44.038Z,1.77
2022-12-11T17:55:14.063Z,2.25
2022-12-11T17:57:44.525Z,3.55
2022-12-11T18:00:13.835Z,1.70
2022-12-11T18:02:42.197Z,2.50
2022-12-11T18:05:13.684Z,2.35
2022-12-11T18:07:42.068Z,2.20
2022-12-11T18:10:10.622Z,2.20
2022-12-11T18:12:40.230Z,1.95
2022-12-11T18:15:10.830Z,1.88
2022-12-11T18:17:39.192Z,2.60
2022-12-11T18:20:08.004Z,3.22
2022-12-11T18:22:36.162Z,3.60
2022-12-11T18:25:09.571Z,1.75
2022-12-11T18:27:39.833Z,2.83
2022-12-11T18:30:08.986Z,1.98
2022-12-11T18:32:37.279Z,1.55
2022-12-11T18:35:06.030Z,1.40
2022-12-11T18:37:34.182Z,1.85
2022-12-11T18:40:02.425Z,1.75
2022-12-11T18:42:33.627Z,2.00
2022-12-11T18:45:03.467Z,1.80
2022-12-11T18:47:31.600Z,1.70
2022-12-11T18:50:05.577Z,2.00
2022-12-11T18:52:35.822Z,1.77
2022-12-11T18:55:05.208Z,1.75
2022-12-11T18:57:33.365Z,1.83
2022-12-11T19:00:07.514Z,3.63
2022-12-11T19:02:35.995Z,1.83
2022-12-11T19:05:04.305Z,2.08
2022-12-11T19:07:32.668Z,2.97
2022-12-11T19:10:00.854Z,2.08
2022-12-11T19:12:28.978Z,2.03
2022-12-11T19:14:57.120Z,4.97
2022-12-11T19:17:26.629Z,1.67
2022-12-11T19:19:54.773Z,1.70
2022-12-11T19:22:22.889Z,1.60
2022-12-11T19:24:51.254Z,1.88
2022-12-11T19:27:19.370Z,1.83
2022-12-11T19:29:47.490Z,1.95
2022-12-11T19:32:15.642Z,1.90
2022-12-11T19:34:45.497Z,2.72
2022-12-11T19:37:13.911Z,2.00
2022-12-11T19:39:42.037Z,1.50
2022-12-11T19:42:10.127Z,2.47
2022-12-11T19:44:40.570Z,2.50
2022-12-11T19:47:08.696Z,2.67
2022-12-11T19:49:36.851Z,1.67
2022-12-11T19:52:06.361Z,2.45
2022-12-11T19:54:34.531Z,2.00
2022-12-11T19:57:02.616Z,1.98
2022-12-11T19:59:30.825Z,1.65
2022-12-11T20:01:59.100Z,2.53
2022-12-11T20:04:27.370Z,2.03
2022-12-11T20:06:55.528Z,2.17
2022-12-11T20:09:25.400Z,1.90
2022-12-11T20:11:56.120Z,2.47
2022-12-11T20:14:26.439Z,2.13
2022-12-11T20:17:13.776Z,2.33
2022-12-11T20:19:43.370Z,2.47
2022-12-11T20:22:12.059Z,1.67
2022-12-11T20:24:41.720Z,2.75
2022-12-11T20:27:12.485Z,1.85
2022-12-11T20:29:40.760Z,1.92
2022-12-11T20:32:11.382Z,2.63
2022-12-11T20:34:39.788Z,1.90
2022-12-11T20:37:07.934Z,1.85
2022-12-11T20:39:36.209Z,1.88
2022-12-11T20:42:06.032Z,2.20
2022-12-11T20:44:34.182Z,2.20
2022-12-11T20:47:02.366Z,2.28
2022-12-11T20:49:32.980Z,2.25
2022-12-11T20:52:01.148Z,1.48
2022-12-11T20:54:29.538Z,1.60
2022-12-11T20:57:00.312Z,1.98
2022-12-11T20:59:29.821Z,2.05
2022-12-11T21:01:58.052Z,1.90
2022-12-11T21:04:26.470Z,1.85
2022-12-11T21:06:56.271Z,1.42
2022-12-11T21:09:26.747Z,1.80
2022-12-11T21:11:57.539Z,1.70
2022-12-11T21:14:25.718Z,1.77
2022-12-11T21:16:55.542Z,2.00
2022-12-11T21:19:23.883Z,1.95
2022-12-11T21:21:52.353Z,1.45
2022-12-11T21:24:23.088Z,1.77
2022-12-11T21:26:51.613Z,1.75
2022-12-11T21:29:19.745Z,5.30
2022-12-11T21:31:48.061Z,2.20
2022-12-11T21:34:23.562Z,4.20
2022-12-11T21:36:56.464Z,3.10
2022-12-11T21:39:24.613Z,2.25
2022-12-11T21:41:54.072Z,2.30
2022-12-11T21:47:11.133Z,2.13
2022-12-11T21:49:40.670Z,2.47
2022-12-11T21:52:09.461Z,2.22
2022-12-11T21:54:39.000Z,2.00
2022-12-11T21:57:07.769Z,1.70
2022-12-11T21:59:35.955Z,1.67
2022-12-11T22:02:04.362Z,2.42
2022-12-11T22:04:32.574Z,1.88
2022-12-11T22:07:02.036Z,1.60
2022-12-11T22:09:30.206Z,1.60
2022-12-11T22:11:58.887Z,2.35
2022-12-11T22:14:27.208Z,2.70
2022-12-11T22:16:55.322Z,1.92
2022-12-11T22:19:26.666Z,1.80
2022-12-11T22:21:58.839Z,2.65
2022-12-11T22:24:28.362Z,1.77
2022-12-11T22:26:56.596Z,1.70
2022-12-11T22:29:24.734Z,1.80
2022-12-11T22:31:53.482Z,1.92
2022-12-11T22:34:21.738Z,2.17
2022-12-11T22:36:49.969Z,1.85
2022-12-11T22:39:18.171Z,2.20
2022-12-11T22:41:47.678Z,1.75
2022-12-11T22:44:18.792Z,2.25
2022-12-11T22:46:50.272Z,2.28
2022-12-11T22:49:19.226Z,2.45
2022-12-11T22:51:47.767Z,1.75
2022-12-11T22:54:15.857Z,1.65
2022-12-11T22:56:44.072Z,3.17
2022-12-11T22:59:13.603Z,2.28
2022-12-11T23:01:41.826Z,1.70
2022-12-11T23:04:10.052Z,3.28
2022-12-11T23:06:38.450Z,1.70
2022-12-11T23:09:06.639Z,1.67
2022-12-11T23:11:38.231Z,2.00
2022-12-11T23:14:07.374Z,1.70
2022-12-11T23:16:36.973Z,2.05
2022-12-11T23:19:05.369Z,2.40
2022-12-11T23:21:34.166Z,2.20
2022-12-11T23:24:05.858Z,1.70
2022-12-11T23:26:34.297Z,1.85
2022-12-11T23:29:03.061Z,1.90
2022-12-11T23:31:31.306Z,2.03
2022-12-11T23:34:00.893Z,2.20
2022-12-11T23:36:29.823Z,2.25
2022-12-11T23:38:58.103Z,2.10
2022-12-11T23:41:28.500Z,2.35
2022-12-11T23:43:56.569Z,2.15
2022-12-11T23:46:26.329Z,1.90
2022-12-11T23:48:55.596Z,2.10
2022-12-11T23:51:26.575Z,2.10
2022-12-11T23:53:55.759Z,1.77
2022-12-11T23:56:27.710Z,1.73
2022-12-11T23:58:56.422Z,2.00
